Blaydon-on-Tyne, United Kingdom
Current Conditions -  °F | °C
As of 12:20 AM on Thursday 29 Jan 2015 (Local Time) from EGNT Reporting Station
Scattered Clouds Scattered Clouds  
Wind Chill: 19°   Ceiling: Unl
Heat Index: 32°   Visibility: 6mi
Dew Point: 28°   Wind: 24mph
Humidity: 87%   Direction: 270°W
Pressure: 29.06"   Gusts: NA
Location:  54.96°N, 1.72°W
Report Text: EGNT 290020Z 27021KT 9999 SCT015 00/M02 Q0984
Loading
Personal Weather Stations






























Interactive Weather Map New forecast layout! Learn more

10-Day Weather Forecast

Advertisements
Track Severe Weather on mobile